createdAt,value
2023-05-13T00:02:26.466Z,100.00
2023-05-13T00:04:58.192Z,100.00
2023-05-13T00:07:30.359Z,100.00
2023-05-13T00:10:10.910Z,100.00
2023-05-13T00:12:43.070Z,100.00
2023-05-13T00:15:15.397Z,100.00
2023-05-13T00:17:54.971Z,100.00
2023-05-13T00:20:25.791Z,100.00
2023-05-13T00:23:03.834Z,100.00
2023-05-13T00:25:39.768Z,100.00
2023-05-13T00:28:12.718Z,100.00
2023-05-13T00:30:51.227Z,100.00
2023-05-13T00:33:25.081Z,100.00
2023-05-13T00:35:55.672Z,100.00
2023-05-13T00:38:31.804Z,100.00
2023-05-13T00:41:03.428Z,100.00
2023-05-13T00:43:40.149Z,100.00
2023-05-13T00:46:19.393Z,100.00
2023-05-13T00:48:48.567Z,100.00
2023-05-13T00:51:23.619Z,100.00
2023-05-13T00:53:58.048Z,100.00
2023-05-13T00:56:33.153Z,100.00
2023-05-13T00:59:04.778Z,100.00
2023-05-13T01:01:42.416Z,100.00
2023-05-13T01:04:19.696Z,100.00
2023-05-13T01:06:59.745Z,100.00
2023-05-13T01:09:50.513Z,100.00
2023-05-13T01:12:29.272Z,100.00
2023-05-13T01:15:16.473Z,100.00
2023-05-13T01:17:51.355Z,100.00
2023-05-13T01:20:26.648Z,100.00
2023-05-13T01:23:00.452Z,100.00
2023-05-13T01:25:29.816Z,100.00
2023-05-13T01:28:03.320Z,100.00
2023-05-13T01:30:32.538Z,100.00
2023-05-13T01:33:04.315Z,100.00
2023-05-13T01:35:33.725Z,100.00
2023-05-13T01:38:05.966Z,100.00
2023-05-13T01:40:37.580Z,100.00
2023-05-13T01:43:10.245Z,100.00
2023-05-13T01:45:39.529Z,100.00
2023-05-13T01:48:16.088Z,100.00
2023-05-13T01:50:51.100Z,100.00
2023-05-13T01:53:23.759Z,100.00
2023-05-13T01:55:58.578Z,100.00
2023-05-13T01:58:31.385Z,100.00
2023-05-13T02:01:06.787Z,100.00
2023-05-13T02:03:42.286Z,100.00
2023-05-13T02:06:15.751Z,100.00
2023-05-13T02:08:52.432Z,100.00
2023-05-13T02:11:23.577Z,100.00
2023-05-13T02:13:58.774Z,100.00
2023-05-13T02:16:34.895Z,100.00
2023-05-13T02:19:07.095Z,100.00
2023-05-13T02:21:41.056Z,100.00
2023-05-13T02:24:12.655Z,100.00
2023-05-13T02:29:34.778Z,100.00
2023-05-13T02:32:05.381Z,100.00
2023-05-13T02:34:42.005Z,100.00
2023-05-13T02:37:11.181Z,100.00
2023-05-13T02:39:47.281Z,100.00
2023-05-13T02:42:18.483Z,100.00
2023-05-13T02:44:53.559Z,100.00
2023-05-13T02:47:31.940Z,100.00
2023-05-13T02:50:00.966Z,100.00
2023-05-13T02:52:41.671Z,100.00
2023-05-13T02:55:16.377Z,100.00
2023-05-13T02:57:45.866Z,100.00
2023-05-13T03:00:21.332Z,100.00
2023-05-13T03:02:54.298Z,100.00
2023-05-13T03:05:39.330Z,100.00
2023-05-13T03:08:14.265Z,100.00
2023-05-13T03:10:46.934Z,100.00
2023-05-13T03:13:18.406Z,100.00
2023-05-13T03:15:50.348Z,100.00
2023-05-13T03:18:24.402Z,100.00
2023-05-13T03:20:53.668Z,100.00
2023-05-13T03:23:30.418Z,100.00
2023-05-13T03:26:05.957Z,100.00
2023-05-13T03:28:37.555Z,100.00
2023-05-13T03:31:09.174Z,100.00
2023-05-13T03:33:38.714Z,100.00
2023-05-13T03:36:12.837Z,100.00
2023-05-13T03:38:43.508Z,100.00
2023-05-13T03:41:21.901Z,100.00
2023-05-13T03:43:54.623Z,100.00
2023-05-13T03:46:29.742Z,100.00
2023-05-13T03:48:59.287Z,100.00
2023-05-13T03:51:31.566Z,100.00
2023-05-13T03:54:03.770Z,100.00
2023-05-13T03:56:38.716Z,100.00
2023-05-13T03:59:09.490Z,100.00
2023-05-13T04:01:44.438Z,100.00
2023-05-13T04:04:17.717Z,100.00
2023-05-13T04:06:54.312Z,100.00
2023-05-13T04:09:23.756Z,100.00
2023-05-13T04:11:54.590Z,100.00
2023-05-13T04:14:23.726Z,100.00
2023-05-13T04:16:57.398Z,100.00
2023-05-13T04:19:46.706Z,100.00
2023-05-13T04:22:23.484Z,100.00
2023-05-13T04:24:57.639Z,100.00
2023-05-13T04:27:29.494Z,100.00
2023-05-13T04:30:05.430Z,100.00
2023-05-13T04:32:40.655Z,100.00
2023-05-13T04:35:14.252Z,100.00
2023-05-13T04:37:43.674Z,100.00
2023-05-13T04:40:15.648Z,100.00
2023-05-13T04:42:55.259Z,100.00
2023-05-13T04:45:25.429Z,100.00
2023-05-13T04:48:04.626Z,100.00
2023-05-13T04:50:33.824Z,100.00
2023-05-13T04:53:05.413Z,100.00
2023-05-13T04:55:43.005Z,100.00
2023-05-13T04:58:13.609Z,100.00
2023-05-13T05:00:47.475Z,100.00
2023-05-13T05:03:23.031Z,100.00
2023-05-13T05:05:52.154Z,100.00
2023-05-13T05:08:21.265Z,100.00
2023-05-13T05:10:57.076Z,100.00
2023-05-13T05:13:27.620Z,100.00
2023-05-13T05:15:59.082Z,100.00
2023-05-13T05:18:28.074Z,100.00
2023-05-13T05:21:03.455Z,100.00
2023-05-13T05:23:40.559Z,100.00
2023-05-13T05:26:12.207Z,100.00
2023-05-13T05:28:49.246Z,100.00
2023-05-13T05:31:19.016Z,100.00
2023-05-13T05:33:50.424Z,100.00
2023-05-13T05:36:21.807Z,100.00
2023-05-13T05:38:50.941Z,100.00
2023-05-13T05:41:25.060Z,100.00
2023-05-13T05:43:56.636Z,100.00
2023-05-13T05:46:27.300Z,100.00
2023-05-13T05:49:05.450Z,100.00
2023-05-13T05:51:39.574Z,100.00
2023-05-13T05:54:12.822Z,100.00
2023-05-13T05:56:44.940Z,100.00
2023-05-13T05:59:17.800Z,100.00
2023-05-13T06:01:50.917Z,100.00
2023-05-13T06:04:25.227Z,100.00
2023-05-13T06:06:54.463Z,100.00
2023-05-13T06:09:25.447Z,100.00
2023-05-13T06:11:59.278Z,100.00
2023-05-13T06:14:32.593Z,100.00
2023-05-13T06:17:02.744Z,100.00
2023-05-13T06:19:50.134Z,100.00
2023-05-13T06:22:19.584Z,100.00
2023-05-13T06:24:55.246Z,100.00
2023-05-13T06:27:24.335Z,100.00
2023-05-13T06:29:57.648Z,100.00
2023-05-13T06:32:28.943Z,100.00
2023-05-13T06:35:00.426Z,100.00
2023-05-13T06:37:31.502Z,100.00
2023-05-13T06:40:04.085Z,100.00
2023-05-13T06:42:36.786Z,100.00
2023-05-13T06:45:09.661Z,100.00
2023-05-13T06:47:44.348Z,100.00
2023-05-13T06:50:18.696Z,100.00
2023-05-13T06:52:47.997Z,100.00
2023-05-13T06:55:20.304Z,100.00
2023-05-13T06:57:51.883Z,100.00
2023-05-13T07:00:26.286Z,100.00
2023-05-13T07:02:55.548Z,100.00
2023-05-13T07:05:28.612Z,100.00
2023-05-13T07:07:57.958Z,100.00
2023-05-13T07:10:27.087Z,100.00
2023-05-13T07:12:56.178Z,100.00
2023-05-13T07:15:32.749Z,100.00
2023-05-13T07:18:09.722Z,100.00
2023-05-13T07:20:39.042Z,100.00
2023-05-13T07:23:08.317Z,100.00
2023-05-13T07:25:37.245Z,100.00
2023-05-13T07:28:06.605Z,100.00
2023-05-13T07:30:43.440Z,100.00
2023-05-13T07:33:14.235Z,100.00
2023-05-13T07:35:47.508Z,100.00
2023-05-13T07:38:20.474Z,100.00
2023-05-13T07:40:58.467Z,100.00
2023-05-13T07:43:28.289Z,100.00
2023-05-13T07:45:58.875Z,100.00
2023-05-13T07:48:28.984Z,100.00
2023-05-13T07:50:59.929Z,100.00
2023-05-13T07:53:34.298Z,100.00
2023-05-13T07:56:03.481Z,100.00
2023-05-13T07:58:34.269Z,100.00
2023-05-13T08:01:11.040Z,100.00
2023-05-13T08:03:44.865Z,100.00
2023-05-13T08:06:16.011Z,100.00
2023-05-13T08:08:47.675Z,100.00
2023-05-13T08:11:19.627Z,100.00
2023-05-13T08:13:50.696Z,100.00
2023-05-13T08:16:24.817Z,100.00
2023-05-13T08:19:01.762Z,100.00
2023-05-13T08:21:35.333Z,100.00
2023-05-13T08:24:05.682Z,97.91
2023-05-13T08:26:35.433Z,97.22
2023-05-13T08:29:06.286Z,99.90
2023-05-13T08:31:41.494Z,95.77
2023-05-13T08:34:12.050Z,96.28
2023-05-13T08:36:41.270Z,96.34
2023-05-13T08:39:17.249Z,94.79
2023-05-13T08:41:52.470Z,90.72
2023-05-13T08:44:33.463Z,89.49
2023-05-13T08:47:09.988Z,91.47
2023-05-13T08:49:40.041Z,93.73
2023-05-13T08:52:13.304Z,90.58
2023-05-13T08:54:44.706Z,89.63
2023-05-13T08:57:14.026Z,88.55
2023-05-13T08:59:52.514Z,92.21
2023-05-13T09:02:24.937Z,88.61
2023-05-13T09:04:58.856Z,85.84
2023-05-13T09:07:28.327Z,85.96
2023-05-13T09:09:59.595Z,83.56
2023-05-13T09:12:45.059Z,83.21
2023-05-13T09:15:16.839Z,83.38
2023-05-13T09:17:53.668Z,87.35
2023-05-13T09:20:23.368Z,89.96
2023-05-13T09:22:55.934Z,90.76
2023-05-13T09:25:31.418Z,86.94
2023-05-13T09:28:02.272Z,88.63
2023-05-13T09:30:34.754Z,86.61
2023-05-13T09:33:15.074Z,88.49
2023-05-13T09:35:45.219Z,87.90
2023-05-13T09:38:18.955Z,92.02
2023-05-13T09:40:59.998Z,91.64
2023-05-13T09:43:40.087Z,96.04
2023-05-13T09:46:14.190Z,90.68
2023-05-13T09:48:45.181Z,91.88
2023-05-13T09:51:14.593Z,88.90
2023-05-13T09:53:43.941Z,92.27
2023-05-13T09:56:13.314Z,92.75
2023-05-13T09:58:47.422Z,93.60
2023-05-13T10:01:16.585Z,93.51
2023-05-13T10:04:00.571Z,91.56
2023-05-13T10:06:32.389Z,92.57
2023-05-13T10:09:03.693Z,90.98
2023-05-13T10:11:39.804Z,93.58
2023-05-13T10:14:12.085Z,96.00
2023-05-13T10:16:41.415Z,97.09
2023-05-13T10:19:19.564Z,93.94
2023-05-13T10:21:54.610Z,96.55
2023-05-13T10:24:27.482Z,95.34
2023-05-13T10:27:04.241Z,95.83
2023-05-13T10:29:36.205Z,91.92
2023-05-13T10:32:07.140Z,94.73
2023-05-13T10:34:45.003Z,93.21
2023-05-13T10:37:30.643Z,93.20
2023-05-13T10:40:18.864Z,93.12
2023-05-13T10:42:56.599Z,96.30
2023-05-13T10:45:33.090Z,92.19
2023-05-13T10:48:14.310Z,89.38
2023-05-13T10:50:59.088Z,86.80
2023-05-13T10:53:40.902Z,88.58
2023-05-13T10:56:15.367Z,90.20
2023-05-13T10:58:46.711Z,88.32
2023-05-13T11:01:18.839Z,90.77
2023-05-13T11:03:55.929Z,86.82
2023-05-13T11:06:31.041Z,85.59
2023-05-13T11:09:04.282Z,87.87
2023-05-13T11:11:34.844Z,85.63
2023-05-13T11:14:17.228Z,88.53
2023-05-13T11:16:48.570Z,87.05
2023-05-13T11:19:27.491Z,85.07
2023-05-13T11:22:08.959Z,84.49
2023-05-13T11:24:38.213Z,86.23
2023-05-13T11:27:16.950Z,84.88
2023-05-13T11:29:52.831Z,79.52
2023-05-13T11:32:51.768Z,80.44
2023-05-13T11:35:28.329Z,78.05
2023-05-13T11:38:00.797Z,79.65
2023-05-13T11:40:34.807Z,79.43
2023-05-13T11:43:06.144Z,82.29
2023-05-13T11:45:37.944Z,80.53
2023-05-13T11:48:25.391Z,79.05
2023-05-13T11:50:58.649Z,78.14
2023-05-13T11:53:31.526Z,80.13
2023-05-13T11:56:13.095Z,80.50
2023-05-13T11:58:46.423Z,82.83
2023-05-13T12:01:22.264Z,76.11
2023-05-13T12:04:03.277Z,71.13
2023-05-13T12:07:00.240Z,69.89
2023-05-13T12:09:41.105Z,72.07
2023-05-13T12:12:17.655Z,72.02
2023-05-13T12:14:47.156Z,70.81
2023-05-13T12:17:16.361Z,76.86
2023-05-13T12:20:11.687Z,73.62
2023-05-13T12:23:02.010Z,73.33
2023-05-13T12:25:49.795Z,74.42
2023-05-13T12:28:19.879Z,74.66
2023-05-13T12:31:00.902Z,73.40
2023-05-13T12:33:43.062Z,72.85
2023-05-13T12:36:20.663Z,78.09
2023-05-13T12:39:02.906Z,75.64
2023-05-13T12:41:46.486Z,74.45
2023-05-13T12:44:23.809Z,72.74
2023-05-13T12:46:59.739Z,77.33
2023-05-13T12:49:29.992Z,66.99
2023-05-13T12:52:07.276Z,64.59
2023-05-13T12:54:36.576Z,63.45
2023-05-13T12:57:16.889Z,66.42
2023-05-13T12:59:48.128Z,65.76
2023-05-13T13:02:23.895Z,64.29
2023-05-13T13:04:59.614Z,66.91
2023-05-13T13:07:39.141Z,64.78
2023-05-13T13:10:14.556Z,56.11
2023-05-13T13:12:46.715Z,53.51
2023-05-13T13:15:21.371Z,48.72
2023-05-13T13:17:52.795Z,47.07
2023-05-13T13:20:24.577Z,46.89
2023-05-13T13:22:55.152Z,46.96
2023-05-13T13:25:24.527Z,46.84
2023-05-13T13:27:56.770Z,42.13
2023-05-13T13:30:26.697Z,43.15
2023-05-13T13:32:57.209Z,43.10
2023-05-13T13:35:26.781Z,42.26
2023-05-13T13:37:59.280Z,41.78
2023-05-13T13:40:28.502Z,41.30
2023-05-13T13:43:03.065Z,37.58
2023-05-13T13:45:32.240Z,35.37
2023-05-13T13:48:04.379Z,36.35
2023-05-13T13:50:36.244Z,36.98
2023-05-13T13:53:07.109Z,38.05
2023-05-13T13:55:42.564Z,38.97
2023-05-13T13:58:15.039Z,38.00
2023-05-13T14:00:45.182Z,38.19
2023-05-13T14:03:20.982Z,38.44
2023-05-13T14:05:54.501Z,38.18
2023-05-13T14:08:29.917Z,38.57
2023-05-13T14:11:02.115Z,43.81
2023-05-13T14:13:40.173Z,43.76
2023-05-13T14:16:16.227Z,44.93
2023-05-13T14:18:47.925Z,45.64
2023-05-13T14:21:25.151Z,44.37
2023-05-13T14:23:56.304Z,48.90
2023-05-13T14:26:28.228Z,47.24
2023-05-13T14:29:03.029Z,54.01
2023-05-13T14:31:32.293Z,59.28
2023-05-13T14:34:05.201Z,61.65
2023-05-13T14:36:38.560Z,67.96
2023-05-13T14:39:10.150Z,71.05
2023-05-13T14:41:42.842Z,70.03
2023-05-13T14:44:16.404Z,71.92
2023-05-13T14:46:55.404Z,77.27
2023-05-13T14:49:28.934Z,83.74
2023-05-13T14:52:01.447Z,85.80
2023-05-13T14:54:35.913Z,95.84
2023-05-13T14:57:08.886Z,100.00
2023-05-13T14:59:41.901Z,100.00
2023-05-13T15:02:17.009Z,100.00
2023-05-13T15:04:49.183Z,100.00
2023-05-13T15:07:28.235Z,100.00
2023-05-13T15:10:09.171Z,100.00
2023-05-13T15:12:38.029Z,100.00
2023-05-13T15:15:13.084Z,100.00
2023-05-13T15:17:49.732Z,100.00
2023-05-13T15:20:23.883Z,100.00
2023-05-13T15:22:53.239Z,100.00
2023-05-13T15:25:24.397Z,100.00
2023-05-13T15:27:56.646Z,100.00
2023-05-13T15:30:28.164Z,100.00
2023-05-13T15:33:02.556Z,100.00
2023-05-13T15:35:36.636Z,100.00
2023-05-13T15:38:13.824Z,100.00
2023-05-13T15:40:42.972Z,100.00
2023-05-13T15:43:19.462Z,100.00
2023-05-13T15:45:50.385Z,100.00
2023-05-13T15:48:27.229Z,100.00
2023-05-13T15:50:56.502Z,100.00
2023-05-13T15:53:28.630Z,100.00
2023-05-13T15:55:57.833Z,100.00
2023-05-13T15:58:35.119Z,100.00
2023-05-13T16:01:12.731Z,100.00
2023-05-13T16:03:45.377Z,100.00
2023-05-13T16:06:20.119Z,100.00
2023-05-13T16:08:49.732Z,100.00
2023-05-13T16:11:23.987Z,100.00
2023-05-13T16:14:04.300Z,100.00
2023-05-13T16:16:38.002Z,100.00
2023-05-13T16:19:11.038Z,100.00
2023-05-13T16:21:46.116Z,100.00
2023-05-13T16:24:18.876Z,100.00
2023-05-13T16:27:00.386Z,100.00
2023-05-13T16:29:32.483Z,100.00
2023-05-13T16:32:09.555Z,100.00
2023-05-13T16:34:40.526Z,100.00
2023-05-13T16:37:10.001Z,100.00
2023-05-13T16:39:39.862Z,100.00
2023-05-13T16:42:12.568Z,100.00
2023-05-13T16:44:42.847Z,100.00
2023-05-13T16:47:13.664Z,100.00
2023-05-13T16:49:53.215Z,100.00
2023-05-13T16:52:26.403Z,100.00
2023-05-13T16:54:59.277Z,100.00
2023-05-13T16:57:35.844Z,100.00
2023-05-13T17:00:08.790Z,100.00
2023-05-13T17:02:46.229Z,100.00
2023-05-13T17:05:20.065Z,100.00
2023-05-13T17:07:51.684Z,100.00
2023-05-13T17:10:23.658Z,100.00
2023-05-13T17:12:58.226Z,100.00
2023-05-13T17:15:34.953Z,100.00
2023-05-13T17:18:08.081Z,100.00
2023-05-13T17:20:46.385Z,100.00
2023-05-13T17:23:17.591Z,100.00
2023-05-13T17:25:56.423Z,100.00
2023-05-13T17:28:36.137Z,100.00
2023-05-13T17:31:11.489Z,100.00
2023-05-13T17:33:46.921Z,100.00
2023-05-13T17:36:16.157Z,100.00
2023-05-13T17:38:45.350Z,98.15
2023-05-13T17:41:33.244Z,100.00
2023-05-13T17:44:19.873Z,94.54
2023-05-13T17:46:54.309Z,97.95
2023-05-13T17:49:31.793Z,92.18
2023-05-13T17:52:01.153Z,88.66
2023-05-13T17:54:31.658Z,88.58
2023-05-13T17:57:02.493Z,87.31
2023-05-13T17:59:39.250Z,91.06
2023-05-13T18:02:14.415Z,90.71
2023-05-13T18:04:55.277Z,85.33
2023-05-13T18:07:24.921Z,90.21
2023-05-13T18:10:00.463Z,86.69
2023-05-13T18:12:31.473Z,91.03
2023-05-13T18:15:08.727Z,89.89
2023-05-13T18:17:38.281Z,88.65
2023-05-13T18:20:14.379Z,91.04
2023-05-13T18:22:44.722Z,90.38
2023-05-13T18:25:15.543Z,91.73
2023-05-13T18:27:47.117Z,92.78
2023-05-13T18:30:20.617Z,92.89
2023-05-13T18:32:52.859Z,94.14
2023-05-13T18:35:24.809Z,92.67
2023-05-13T18:38:02.705Z,93.33
2023-05-13T18:40:34.346Z,96.55
2023-05-13T18:43:03.590Z,96.84
2023-05-13T18:45:37.737Z,97.91
2023-05-13T18:48:07.581Z,97.42
2023-05-13T18:50:39.663Z,98.55
2023-05-13T18:53:08.806Z,100.00
2023-05-13T18:55:42.785Z,100.00
2023-05-13T18:58:17.298Z,100.00
2023-05-13T19:00:47.242Z,100.00
2023-05-13T19:03:29.607Z,100.00
2023-05-13T19:06:00.163Z,100.00
2023-05-13T19:08:29.235Z,100.00
2023-05-13T19:10:59.241Z,100.00
2023-05-13T19:13:43.407Z,100.00
2023-05-13T19:16:23.289Z,100.00
2023-05-13T19:18:52.474Z,100.00
2023-05-13T19:21:24.734Z,100.00
2023-05-13T19:23:53.815Z,100.00
2023-05-13T19:26:29.845Z,100.00
2023-05-13T19:29:01.293Z,100.00
2023-05-13T19:31:32.687Z,100.00
2023-05-13T19:34:02.415Z,100.00
2023-05-13T19:36:35.278Z,100.00
2023-05-13T19:39:04.395Z,100.00
2023-05-13T19:41:40.037Z,100.00
2023-05-13T19:44:12.957Z,100.00
2023-05-13T19:46:44.244Z,100.00
2023-05-13T19:49:19.702Z,100.00
2023-05-13T19:51:54.321Z,100.00
2023-05-13T19:54:23.504Z,100.00
2023-05-13T19:56:55.121Z,100.00
2023-05-13T19:59:28.473Z,100.00
2023-05-13T20:02:11.442Z,100.00
2023-05-13T20:04:43.506Z,100.00
2023-05-13T20:07:23.314Z,100.00
2023-05-13T20:09:58.100Z,100.00
2023-05-13T20:12:32.716Z,100.00
2023-05-13T20:15:04.111Z,100.00
2023-05-13T20:17:37.626Z,100.00
2023-05-13T20:20:12.216Z,100.00
2023-05-13T20:22:49.958Z,100.00
2023-05-13T20:25:24.920Z,100.00
2023-05-13T20:27:59.724Z,100.00
2023-05-13T20:30:33.440Z,100.00
2023-05-13T20:33:05.114Z,100.00
2023-05-13T20:35:35.851Z,100.00
2023-05-13T20:38:11.815Z,100.00
2023-05-13T20:40:49.895Z,100.00
2023-05-13T20:43:25.537Z,100.00
2023-05-13T20:45:56.101Z,100.00
2023-05-13T20:48:28.172Z,100.00
2023-05-13T20:51:03.126Z,100.00
2023-05-13T20:53:38.588Z,100.00
2023-05-13T20:56:13.912Z,100.00
2023-05-13T20:58:48.494Z,100.00
2023-05-13T21:01:27.003Z,100.00
2023-05-13T21:04:05.025Z,100.00
2023-05-13T21:06:34.349Z,100.00
2023-05-13T21:09:15.367Z,100.00
2023-05-13T21:11:47.669Z,100.00
2023-05-13T21:14:25.776Z,100.00
2023-05-13T21:16:57.955Z,100.00
2023-05-13T21:19:33.179Z,100.00
2023-05-13T21:22:06.334Z,100.00
2023-05-13T21:24:38.138Z,100.00
2023-05-13T21:27:12.958Z,100.00
2023-05-13T21:29:46.261Z,100.00
2023-05-13T21:32:18.537Z,100.00
2023-05-13T21:34:53.217Z,100.00
2023-05-13T21:37:27.127Z,100.00
2023-05-13T21:40:08.067Z,100.00
2023-05-13T21:42:37.312Z,100.00
2023-05-13T21:45:10.591Z,100.00
2023-05-13T21:47:42.712Z,100.00
2023-05-13T21:50:18.027Z,100.00
2023-05-13T21:52:50.561Z,100.00
2023-05-13T21:55:25.480Z,100.00
2023-05-13T21:58:13.737Z,100.00
2023-05-13T22:00:49.202Z,100.00
2023-05-13T22:03:24.288Z,100.00
2023-05-13T22:05:57.196Z,100.00
2023-05-13T22:08:31.439Z,100.00
2023-05-13T22:11:05.980Z,100.00
2023-05-13T22:13:54.248Z,100.00
2023-05-13T22:16:29.419Z,100.00
2023-05-13T22:19:05.246Z,100.00
2023-05-13T22:24:28.689Z,100.00
2023-05-13T22:27:07.637Z,100.00
2023-05-13T22:29:37.000Z,100.00
2023-05-13T22:32:07.933Z,100.00
2023-05-13T22:34:39.068Z,100.00
2023-05-13T22:37:11.499Z,100.00
2023-05-13T22:39:48.009Z,100.00
2023-05-13T22:42:23.535Z,100.00
2023-05-13T22:44:56.249Z,100.00
2023-05-13T22:47:27.520Z,100.00
2023-05-13T22:50:05.166Z,100.00
2023-05-13T22:52:43.192Z,100.00
2023-05-13T22:55:16.971Z,100.00
2023-05-13T22:57:56.961Z,100.00
2023-05-13T23:00:28.289Z,100.00
2023-05-13T23:03:07.125Z,100.00
2023-05-13T23:05:41.372Z,100.00
2023-05-13T23:08:13.185Z,100.00
2023-05-13T23:10:47.683Z,100.00
2023-05-13T23:13:20.181Z,100.00
2023-05-13T23:15:55.386Z,100.00
2023-05-13T23:18:30.018Z,100.00
2023-05-13T23:20:59.003Z,100.00
2023-05-13T23:23:34.361Z,100.00
2023-05-13T23:26:04.674Z,100.00
2023-05-13T23:28:35.530Z,100.00
2023-05-13T23:31:11.735Z,100.00
2023-05-13T23:33:47.189Z,100.00
2023-05-13T23:36:27.085Z,100.00
2023-05-13T23:39:04.474Z,100.00
2023-05-13T23:41:37.566Z,100.00
2023-05-13T23:44:10.036Z,100.00
2023-05-13T23:46:41.485Z,100.00
2023-05-13T23:49:14.670Z,100.00
2023-05-13T23:51:46.332Z,100.00
2023-05-13T23:54:20.150Z,100.00
2023-05-13T23:56:53.480Z,100.00
2023-05-13T23:59:28.665Z,100.00
